»·PEaware :: N1306C KTOA-KSBD

N1306C :: KTOA-KSBD

FLIGHT INFORMATION

Flight Status: Arrived
Operator: Privately registered:
United States
More flights under this callsign
Pilot: Mark S. (16827)
Aircraft: CESSNA 172 SKYHAWK
(C172)
More flights by this aircraft type
Origin: KTOA Zamperini
United States
Destination: KSBD San Bernardino Intl
United States
More flights between these airports :: More routes between these airports
Route: +LAX170 LIMBO V64 SLI V8 PDZ
File this flight plan on PilotEdge
Remarks: +CW / CSTP13
Altitude:
(Current/Filed)
5,000ft
Speed:
(Current/Filed)
120kts
Departed: 06-Dec-19 09:35 AM
Arrived: 06-Dec-19 10:17 AM
Distance/Time
Traveled:
58nm/0:42
Distance/Time
To Go:
Arrived

Flight Plot

Page will automatically refresh every two minutes.

Flight plan parsing failed; only flown route is shown


Map Options




Map Legend


Flown Route
Filed Route
Departure Airport
Arrival Airport
Navaid (VOR, NDB)
Fix

Horizontal Profiles

Position Reports

Time Latitude Longitude Heading Altitude Ground
Speed
06-Dec-19 09:10 33.803347 -118.344052 39 101ft 0kts
06-Dec-19 09:12 33.803347 -118.344052 39 101ft 0kts
06-Dec-19 09:13 33.803347 -118.344052 39 101ft 0kts
06-Dec-19 09:14 33.803347 -118.344052 39 101ft 0kts
06-Dec-19 09:15 33.803347 -118.344052 39 101ft 0kts
06-Dec-19 09:16 33.803347 -118.344052 39 101ft 0kts
06-Dec-19 09:17 33.803347 -118.344052 39 101ft 0kts
06-Dec-19 09:18 33.803347 -118.344052 39 101ft 0kts
06-Dec-19 09:19 33.803347 -118.344052 39 101ft 0kts
06-Dec-19 09:20 33.803347 -118.344052 39 101ft 0kts
06-Dec-19 09:21 33.802858 -118.343014 127 101ft 11kts
06-Dec-19 09:22 33.801617 -118.339927 128 101ft 15kts
06-Dec-19 09:23 33.798481 -118.335196 127 101ft 18kts
06-Dec-19 09:24 33.798947 -118.333203 305 101ft 0kts
06-Dec-19 09:25 33.798947 -118.333203 305 101ft 0kts
06-Dec-19 09:26 33.798947 -118.333203 304 101ft 0kts
06-Dec-19 09:27 33.798947 -118.333203 305 101ft 0kts
06-Dec-19 09:28 33.798947 -118.333203 305 101ft 0kts
06-Dec-19 09:29 33.798947 -118.333203 305 101ft 0kts
06-Dec-19 09:30 33.798947 -118.333203 305 101ft 0kts
06-Dec-19 09:31 33.798947 -118.333203 305 101ft 0kts
06-Dec-19 09:32 33.798947 -118.333203 305 101ft 0kts
06-Dec-19 09:33 33.799662 -118.333019 318 101ft 8kts
06-Dec-19 09:34 33.810456 -118.351196 304 655ft 81kts
06-Dec-19 09:35 33.821581 -118.373722 301 1567ft 76kts
06-Dec-19 09:36 33.831888 -118.395743 300 2359ft 76kts
06-Dec-19 09:37 33.842635 -118.418071 302 3098ft 77kts
06-Dec-19 09:38 33.853536 -118.440437 302 3783ft 78kts
06-Dec-19 09:39 33.863835 -118.463514 273 4420ft 79kts
06-Dec-19 09:40 33.846599 -118.469011 163 4986ft 84kts
06-Dec-19 09:41 33.817822 -118.458693 161 4997ft 118kts
06-Dec-19 09:42 33.785705 -118.447406 181 4998ft 119kts
06-Dec-19 09:43 33.762304 -118.430826 95 5001ft 116kts
06-Dec-19 09:44 33.763223 -118.391799 86 5000ft 117kts
06-Dec-19 09:45 33.765568 -118.352422 85 5000ft 118kts
06-Dec-19 09:46 33.767965 -118.312851 85 5001ft 119kts
06-Dec-19 09:47 33.770462 -118.271569 85 5000ft 126kts
06-Dec-19 09:48 33.772988 -118.229457 85 5000ft 126kts
06-Dec-19 09:49 33.775504 -118.187315 85 4999ft 126kts
06-Dec-19 09:50 33.778017 -118.144990 85 4999ft 126kts
06-Dec-19 09:51 33.780509 -118.102787 85 4999ft 126kts
06-Dec-19 09:52 33.783003 -118.060579 84 4999ft 126kts
06-Dec-19 09:53 33.792420 -118.019808 72 4999ft 125kts
06-Dec-19 09:54 33.802776 -117.979812 72 4999ft 125kts
06-Dec-19 09:55 33.813146 -117.939767 72 4999ft 125kts
06-Dec-19 09:56 33.823515 -117.899665 72 4999ft 125kts
06-Dec-19 09:57 33.833837 -117.859704 72 5000ft 125kts
06-Dec-19 09:58 33.844166 -117.819647 72 4999ft 125kts
06-Dec-19 09:59 33.854417 -117.779551 73 4999ft 125kts
06-Dec-19 10:00 33.864381 -117.739295 72 5000ft 125kts
06-Dec-19 10:01 33.874718 -117.699252 72 4999ft 125kts
06-Dec-19 10:02 33.885064 -117.659226 72 4999ft 125kts
06-Dec-19 10:03 33.895424 -117.619091 72 5000ft 125kts
06-Dec-19 10:04 33.905773 -117.579001 72 5000ft 125kts
06-Dec-19 10:05 33.916473 -117.539009 58 4979ft 127kts
06-Dec-19 10:06 33.947337 -117.518835 18 4482ft 128kts
06-Dec-19 10:07 33.981241 -117.505364 17 4013ft 126kts
06-Dec-19 10:08 34.013459 -117.491844 36 3980ft 123kts
06-Dec-19 10:09 34.030117 -117.454251 69 3331ft 129kts
06-Dec-19 10:10 34.041134 -117.417752 69 3298ft 108kts
06-Dec-19 10:11 34.051206 -117.384023 70 3308ft 95kts
06-Dec-19 10:12 34.059807 -117.354884 69 2880ft 93kts
06-Dec-19 10:13 34.068748 -117.324745 70 2379ft 96kts
06-Dec-19 10:14 34.077590 -117.294913 70 1875ft 93kts
06-Dec-19 10:15 34.086204 -117.265737 71 1388ft 90kts
06-Dec-19 10:16 34.093253 -117.241772 65 1136ft 32kts
06-Dec-19 10:18 34.094564 -117.240690 33 1136ft 0kts
06-Dec-19 10:19 34.097179 -117.238514 36 1136ft 22kts

Navigation Log

Ident Type
Flight plan parsing failed, navigation log unavailable